createdAt,value
2017-03-17T00:00:54.672Z,1002.21
2017-03-17T00:01:54.699Z,1002.18
2017-03-17T00:02:54.740Z,1002.13
2017-03-17T00:03:54.769Z,1002.14
2017-03-17T00:04:54.818Z,1002.14
2017-03-17T00:05:54.842Z,1002.1
2017-03-17T00:06:54.869Z,1002.08
2017-03-17T00:07:54.910Z,1002.07
2017-03-17T00:08:54.939Z,1002.06
2017-03-17T00:09:54.979Z,1002.05
2017-03-17T00:10:55.011Z,1002.03
2017-03-17T00:11:55.037Z,1002.02
2017-03-17T00:12:55.080Z,1002.07
2017-03-17T00:13:55.106Z,1002.08
2017-03-17T00:14:55.147Z,1002.06
2017-03-17T00:15:55.181Z,1002.07
2017-03-17T00:16:55.207Z,1002.04
2017-03-17T00:17:55.241Z,1002.05
2017-03-17T00:18:55.283Z,1002.07
2017-03-17T00:19:55.315Z,1002.07
2017-03-17T00:20:55.349Z,1002.05
2017-03-17T00:21:55.376Z,1002
2017-03-17T00:22:55.417Z,1002
2017-03-17T00:23:55.445Z,1002.03
2017-03-17T00:24:55.478Z,1001.99
2017-03-17T00:25:55.520Z,1001.93
2017-03-17T00:26:55.545Z,1001.89
2017-03-17T00:27:55.587Z,1001.84
2017-03-17T00:28:55.613Z,1001.87
2017-03-17T00:29:55.655Z,1001.81
2017-03-17T00:30:55.689Z,1001.8
2017-03-17T00:31:55.722Z,1001.79
2017-03-17T00:32:55.757Z,1001.77
2017-03-17T00:33:55.781Z,1001.76
2017-03-17T00:34:55.823Z,1001.7
2017-03-17T00:35:55.866Z,1001.7
2017-03-17T00:36:55.891Z,1001.65
2017-03-17T00:37:55.916Z,1001.66
2017-03-17T00:38:55.951Z,1001.66
2017-03-17T00:39:55.998Z,1001.64
2017-03-17T00:40:56.017Z,1001.6
2017-03-17T00:41:56.052Z,1001.58
2017-03-17T00:42:56.094Z,1001.54
2017-03-17T00:43:56.119Z,1001.52
2017-03-17T00:44:56.159Z,1001.55
2017-03-17T00:45:56.194Z,1001.58
2017-03-17T00:46:56.220Z,1001.51
2017-03-17T00:47:56.262Z,1001.53
2017-03-17T00:48:56.294Z,1001.51
2017-03-17T00:49:56.329Z,1001.47
2017-03-17T00:50:56.355Z,1001.47
2017-03-17T00:51:56.387Z,1001.45
2017-03-17T00:52:56.429Z,1001.43
2017-03-17T00:53:56.463Z,1001.4
2017-03-17T00:54:56.497Z,1001.42
2017-03-17T00:55:56.530Z,1001.42
2017-03-17T00:56:56.557Z,1001.34
2017-03-17T00:57:56.598Z,1001.3
2017-03-17T00:58:56.632Z,1001.25
2017-03-17T00:59:56.657Z,1001.22
2017-03-17T01:00:56.698Z,1001.17
2017-03-17T01:01:56.733Z,1001.12
2017-03-17T01:02:56.758Z,1001.13
2017-03-17T01:03:56.800Z,1001.14
2017-03-17T01:04:56.826Z,1001.13
2017-03-17T01:05:56.868Z,1001.07
2017-03-17T01:06:56.900Z,1001.07
2017-03-17T01:07:56.934Z,1001.05
2017-03-17T01:08:56.961Z,1001.03
2017-03-17T01:09:57.002Z,1001
2017-03-17T01:10:57.034Z,1001
2017-03-17T01:11:57.061Z,1000.93
2017-03-17T01:12:57.102Z,1000.93
2017-03-17T01:13:57.127Z,1000.86
2017-03-17T01:14:57.166Z,1000.88
2017-03-17T01:15:57.203Z,1000.88
2017-03-17T01:16:57.236Z,1000.84
2017-03-17T01:17:57.269Z,1000.82
2017-03-17T01:18:57.296Z,1000.8
2017-03-17T01:19:57.337Z,1000.77
2017-03-17T01:20:57.363Z,1000.75
2017-03-17T01:21:57.404Z,1000.73
2017-03-17T01:22:57.437Z,1000.67
2017-03-17T01:23:57.472Z,1000.65
2017-03-17T01:24:57.504Z,1000.61
2017-03-17T01:25:57.530Z,1000.59
2017-03-17T01:26:57.564Z,1000.6
2017-03-17T01:27:57.605Z,1000.59
2017-03-17T01:28:57.638Z,1000.53
2017-03-17T01:29:57.664Z,1000.52
2017-03-17T01:30:57.697Z,1000.51
2017-03-17T01:31:57.738Z,1000.48
2017-03-17T01:32:57.765Z,1000.46
2017-03-17T01:33:57.798Z,1000.47
2017-03-17T01:34:57.832Z,1000.46
2017-03-17T01:35:57.872Z,1000.47
2017-03-17T01:36:57.898Z,1000.4
2017-03-17T01:37:57.931Z,1000.44
2017-03-17T01:38:57.969Z,1000.39
2017-03-17T01:39:57.998Z,1000.37
2017-03-17T01:40:58.039Z,1000.38
2017-03-17T01:41:58.065Z,1000.34
2017-03-17T01:42:58.108Z,1000.32
2017-03-17T01:43:58.139Z,1000.26
2017-03-17T01:44:58.174Z,1000.27
2017-03-17T01:45:58.199Z,1000.26
2017-03-17T01:46:58.233Z,1000.23
2017-03-17T01:47:58.274Z,1000.21
2017-03-17T01:48:58.329Z,1000.2
2017-03-17T01:49:58.333Z,1000.16
2017-03-17T01:50:58.373Z,1000.19
2017-03-17T01:51:58.398Z,1000.17
2017-03-17T01:52:58.432Z,1000.11
2017-03-17T01:53:58.466Z,1000.1
2017-03-17T01:54:58.499Z,1000.12
2017-03-17T01:55:58.532Z,1000.13
2017-03-17T01:56:58.574Z,1000.09
2017-03-17T01:57:58.606Z,1000.04
2017-03-17T01:58:58.632Z,1000.08
2017-03-17T01:59:58.674Z,1000.02
2017-03-17T02:00:58.699Z,999.94
2017-03-17T02:01:58.740Z,999.97
2017-03-17T02:02:58.775Z,999.96
2017-03-17T02:03:58.799Z,999.96
2017-03-17T02:04:58.834Z,999.96
2017-03-17T02:05:58.875Z,1000
2017-03-17T02:06:58.908Z,999.98
2017-03-17T02:07:58.934Z,999.95
2017-03-17T02:08:58.966Z,999.95
2017-03-17T02:09:59.000Z,999.97
2017-03-17T02:10:59.033Z,999.98
2017-03-17T02:11:59.077Z,999.96
2017-03-17T02:12:59.108Z,1000.02
2017-03-17T02:13:59.142Z,999.98
2017-03-17T02:14:59.175Z,999.99
2017-03-17T02:15:59.200Z,999.92
2017-03-17T02:16:59.241Z,999.94
2017-03-17T02:17:59.267Z,999.92
2017-03-17T02:18:59.329Z,999.87
2017-03-17T02:19:59.341Z,999.89
2017-03-17T02:20:59.375Z,999.88
2017-03-17T02:21:59.409Z,999.8
2017-03-17T02:22:59.442Z,999.84
2017-03-17T02:23:59.474Z,999.81
2017-03-17T02:24:59.507Z,999.82
2017-03-17T02:25:59.541Z,999.77
2017-03-17T02:26:59.567Z,999.8
2017-03-17T02:27:59.600Z,999.81
2017-03-17T02:28:59.633Z,999.76
2017-03-17T02:29:59.674Z,999.74
2017-03-17T02:30:59.700Z,999.7
2017-03-17T02:31:59.733Z,999.72
2017-03-17T02:32:59.767Z,999.64
2017-03-17T02:33:59.808Z,999.69
2017-03-17T02:34:59.834Z,999.68
2017-03-17T02:35:59.875Z,999.67
2017-03-17T02:36:59.909Z,999.59
2017-03-17T02:37:59.941Z,999.61
2017-03-17T02:38:59.974Z,999.57
2017-03-17T02:40:00.009Z,999.52
2017-03-17T02:41:00.042Z,999.48
2017-03-17T02:42:00.073Z,999.46
2017-03-17T02:43:00.108Z,999.38
2017-03-17T02:44:00.140Z,999.42
2017-03-17T02:45:00.167Z,999.33
2017-03-17T02:46:00.207Z,999.34
2017-03-17T02:47:00.232Z,999.33
2017-03-17T02:48:00.274Z,999.33
2017-03-17T02:49:00.298Z,999.31
2017-03-17T02:50:00.332Z,999.3
2017-03-17T02:51:00.398Z,999.3
2017-03-17T02:52:00.407Z,999.29
2017-03-17T02:53:00.439Z,999.25
2017-03-17T02:54:00.466Z,999.26
2017-03-17T02:55:00.498Z,999.18
2017-03-17T02:56:00.541Z,999.18
2017-03-17T02:57:00.573Z,999.15
2017-03-17T02:58:00.599Z,999.13
2017-03-17T02:59:00.632Z,999.14
2017-03-17T03:00:00.665Z,999.11
2017-03-17T03:01:00.697Z,999.11
2017-03-17T03:02:00.732Z,999.12
2017-03-17T03:03:00.773Z,999.05
2017-03-17T03:04:00.796Z,999.02
2017-03-17T03:05:00.839Z,999.01
2017-03-17T03:06:00.864Z,998.98
2017-03-17T03:07:00.899Z,998.94
2017-03-17T03:08:00.938Z,998.95
2017-03-17T03:09:00.963Z,998.89
2017-03-17T03:10:00.998Z,998.91
2017-03-17T03:11:01.030Z,998.9
2017-03-17T03:12:01.063Z,998.85
2017-03-17T03:13:01.097Z,998.87
2017-03-17T03:14:01.139Z,998.85
2017-03-17T03:15:01.170Z,998.82
2017-03-17T03:16:01.205Z,998.83
2017-03-17T03:17:01.237Z,998.77
2017-03-17T03:18:01.276Z,998.74
2017-03-17T03:19:01.302Z,998.73
2017-03-17T03:20:01.337Z,998.74
2017-03-17T03:21:01.362Z,998.71
2017-03-17T03:22:01.398Z,998.69
2017-03-17T03:23:01.436Z,998.68
2017-03-17T03:24:01.462Z,998.64
2017-03-17T03:25:01.496Z,998.63
2017-03-17T03:26:01.535Z,998.62
2017-03-17T03:27:01.561Z,998.58
2017-03-17T03:28:01.594Z,998.61
2017-03-17T03:29:01.635Z,998.62
2017-03-17T03:30:01.661Z,998.63
2017-03-17T03:31:01.693Z,998.57
2017-03-17T03:32:01.726Z,998.59
2017-03-17T03:33:01.759Z,998.58
2017-03-17T03:34:01.801Z,998.52
2017-03-17T03:35:01.837Z,998.56
2017-03-17T03:36:01.860Z,998.56
2017-03-17T03:37:01.893Z,998.56
2017-03-17T03:38:01.933Z,998.53
2017-03-17T03:39:01.967Z,998.54
2017-03-17T03:40:02.000Z,998.51
2017-03-17T03:41:02.033Z,998.51
2017-03-17T03:42:02.058Z,998.51
2017-03-17T03:43:02.093Z,998.55
2017-03-17T03:44:02.125Z,998.53
2017-03-17T03:45:02.166Z,998.56
2017-03-17T03:46:02.192Z,998.54
2017-03-17T03:47:02.224Z,998.51
2017-03-17T03:48:02.257Z,998.51
2017-03-17T03:49:02.291Z,998.5
2017-03-17T03:50:02.324Z,998.53
2017-03-17T03:51:02.363Z,998.49
2017-03-17T03:52:02.400Z,998.49
2017-03-17T03:53:02.422Z,998.42
2017-03-17T03:54:02.456Z,998.44
2017-03-17T03:55:02.496Z,998.42
2017-03-17T03:56:02.531Z,998.41
2017-03-17T03:57:02.564Z,998.43
2017-03-17T03:58:02.590Z,998.39
2017-03-17T03:59:02.621Z,998.41
2017-03-17T04:00:02.663Z,998.38
2017-03-17T04:01:02.687Z,998.37
2017-03-17T04:02:02.730Z,998.37
2017-03-17T04:03:02.753Z,998.34
2017-03-17T04:04:02.795Z,998.32
2017-03-17T04:05:02.827Z,998.3
2017-03-17T04:06:02.861Z,998.32
2017-03-17T04:07:02.886Z,998.29
2017-03-17T04:08:02.919Z,998.29
2017-03-17T04:09:02.962Z,998.27
2017-03-17T04:10:02.995Z,998.24
2017-03-17T04:11:03.026Z,998.23
2017-03-17T04:12:03.052Z,998.18
2017-03-17T04:13:03.093Z,998.2
2017-03-17T04:14:03.124Z,998.19
2017-03-17T04:15:03.158Z,998.16
2017-03-17T04:16:03.192Z,998.14
2017-03-17T04:17:03.223Z,998.1
2017-03-17T04:18:03.258Z,998.05
2017-03-17T04:19:03.291Z,998.02
2017-03-17T04:20:03.316Z,998.07
2017-03-17T04:21:03.358Z,998.01
2017-03-17T04:22:03.392Z,998.02
2017-03-17T04:23:03.424Z,997.97
2017-03-17T04:24:03.449Z,997.97
2017-03-17T04:25:03.489Z,997.94
2017-03-17T04:26:03.515Z,997.92
2017-03-17T04:27:03.555Z,997.8
2017-03-17T04:28:03.580Z,997.82
2017-03-17T04:29:03.621Z,997.79
2017-03-17T04:30:03.654Z,997.82
2017-03-17T04:31:03.681Z,997.76
2017-03-17T04:32:03.720Z,997.77
2017-03-17T04:33:03.746Z,997.78
2017-03-17T04:34:03.779Z,997.79
2017-03-17T04:35:03.818Z,997.8
2017-03-17T04:36:03.843Z,997.77
2017-03-17T04:37:03.877Z,997.79
2017-03-17T04:38:03.911Z,997.69
2017-03-17T04:39:03.951Z,997.72
2017-03-17T04:40:03.985Z,997.77
2017-03-17T04:41:04.018Z,997.78
2017-03-17T04:42:04.050Z,997.75
2017-03-17T04:43:04.075Z,997.74
2017-03-17T04:44:04.116Z,997.69
2017-03-17T04:45:04.150Z,997.72
2017-03-17T04:46:04.174Z,997.69
2017-03-17T04:47:04.214Z,997.67
2017-03-17T04:48:04.241Z,997.7
2017-03-17T04:49:04.273Z,997.67
2017-03-17T04:50:04.304Z,997.6
2017-03-17T04:51:04.345Z,997.56
2017-03-17T04:52:04.378Z,997.6
2017-03-17T04:53:04.403Z,997.57
2017-03-17T04:54:04.437Z,997.6
2017-03-17T04:55:04.476Z,997.53
2017-03-17T04:56:04.512Z,997.59
2017-03-17T04:57:04.541Z,997.52
2017-03-17T04:58:04.575Z,997.43
2017-03-17T04:59:04.601Z,997.55
2017-03-17T05:00:04.633Z,997.56
2017-03-17T05:01:04.666Z,997.49
2017-03-17T05:02:04.732Z,997.52
2017-03-17T05:03:04.732Z,997.47
2017-03-17T05:04:04.771Z,997.43
2017-03-17T05:05:04.795Z,997.45
2017-03-17T05:06:04.829Z,997.37
2017-03-17T05:07:04.870Z,997.41
2017-03-17T05:08:04.894Z,997.41
2017-03-17T05:09:04.935Z,997.39
2017-03-17T05:10:04.969Z,997.36
2017-03-17T05:11:05.001Z,997.33
2017-03-17T05:12:05.025Z,997.36
2017-03-17T05:13:05.065Z,997.34
2017-03-17T05:14:05.091Z,997.34
2017-03-17T05:15:05.131Z,997.35
2017-03-17T05:16:05.165Z,997.33
2017-03-17T05:17:05.197Z,997.3
2017-03-17T05:18:05.230Z,997.33
2017-03-17T05:19:05.262Z,997.29
2017-03-17T05:20:05.287Z,997.25
2017-03-17T05:21:05.329Z,997.27
2017-03-17T05:22:05.363Z,997.26
2017-03-17T05:23:05.393Z,997.26
2017-03-17T05:24:05.425Z,997.27
2017-03-17T05:25:05.452Z,997.26
2017-03-17T05:26:05.484Z,997.28
2017-03-17T05:27:05.525Z,997.28
2017-03-17T05:28:05.550Z,997.3
2017-03-17T05:29:05.592Z,997.32
2017-03-17T05:30:05.614Z,997.29
2017-03-17T05:31:05.657Z,997.24
2017-03-17T05:32:05.689Z,997.27
2017-03-17T05:33:05.722Z,997.26
2017-03-17T05:34:05.747Z,997.23
2017-03-17T05:35:05.780Z,997.27
2017-03-17T05:36:05.821Z,997.23
2017-03-17T05:37:05.854Z,997.27
2017-03-17T05:38:05.880Z,997.18
2017-03-17T05:39:05.922Z,997.22
2017-03-17T05:40:05.955Z,997.2
2017-03-17T05:41:05.988Z,997.16
2017-03-17T05:42:06.013Z,997.2
2017-03-17T05:43:06.049Z,997.18
2017-03-17T05:44:06.090Z,997.2
2017-03-17T05:45:06.114Z,997.19
2017-03-17T05:46:06.156Z,997.14
2017-03-17T05:47:06.183Z,997.12
2017-03-17T05:48:06.215Z,997.18
2017-03-17T05:49:06.259Z,997.05
2017-03-17T05:50:06.294Z,997.07
2017-03-17T05:51:06.317Z,997.08
2017-03-17T05:52:06.350Z,997.11
2017-03-17T05:53:06.396Z,997.1
2017-03-17T05:54:06.428Z,997.09
2017-03-17T05:55:06.455Z,997.1
2017-03-17T05:56:06.707Z,997.13
2017-03-17T05:57:06.530Z,997.07
2017-03-17T05:58:06.565Z,997.1
2017-03-17T05:59:06.591Z,997.11
2017-03-17T06:00:06.634Z,997.09
2017-03-17T06:01:06.660Z,996.99
2017-03-17T06:02:06.696Z,996.99
2017-03-17T06:03:06.729Z,997
2017-03-17T06:04:06.764Z,997.03
2017-03-17T06:05:06.807Z,996.99
2017-03-17T06:06:06.835Z,997.03
2017-03-17T06:07:06.867Z,997.01
2017-03-17T06:08:06.913Z,996.94
2017-03-17T06:09:06.940Z,996.95
2017-03-17T06:10:06.972Z,996.93
2017-03-17T06:11:07.008Z,996.94
2017-03-17T06:12:07.045Z,996.94
2017-03-17T06:13:07.087Z,996.88
2017-03-17T06:14:07.121Z,996.88
2017-03-17T06:15:07.149Z,996.81
2017-03-17T06:16:07.185Z,996.81
2017-03-17T06:17:07.228Z,996.77
2017-03-17T06:18:07.254Z,996.81
2017-03-17T06:19:07.291Z,996.77
2017-03-17T06:20:07.335Z,996.82
2017-03-17T06:21:07.362Z,996.84
2017-03-17T06:22:07.398Z,996.78
2017-03-17T06:23:07.435Z,996.83
2017-03-17T06:24:07.470Z,996.82
2017-03-17T06:25:07.506Z,996.78
2017-03-17T06:26:07.550Z,996.77
2017-03-17T06:27:07.603Z,996.73
2017-03-17T06:28:07.614Z,996.79
2017-03-17T06:29:07.650Z,996.86
2017-03-17T06:30:07.686Z,996.83
2017-03-17T06:31:07.730Z,996.81
2017-03-17T06:32:07.766Z,996.77
2017-03-17T06:33:07.803Z,996.73
2017-03-17T06:34:07.842Z,996.77
2017-03-17T06:35:07.870Z,996.76
2017-03-17T06:36:07.908Z,996.78
2017-03-17T06:37:09.235Z,996.76
2017-03-17T06:38:09.714Z,996.73
2017-03-17T06:39:08.021Z,996.77
2017-03-17T06:40:08.059Z,996.81
2017-03-17T06:41:08.099Z,996.77
2017-03-17T06:42:08.135Z,996.75
2017-03-17T06:43:09.269Z,996.77
2017-03-17T06:44:09.550Z,996.78
2017-03-17T06:45:09.046Z,996.77
2017-03-17T06:46:08.294Z,996.76
2017-03-17T06:47:09.443Z,996.78
2017-03-17T06:48:08.364Z,996.81
2017-03-17T06:49:09.307Z,996.78
2017-03-17T06:50:09.190Z,996.77
2017-03-17T06:51:08.695Z,996.89
2017-03-17T06:52:09.109Z,996.79
2017-03-17T06:53:08.583Z,996.81
2017-03-17T06:54:08.598Z,996.82
2017-03-17T06:55:08.639Z,996.84
2017-03-17T06:56:08.687Z,996.78
2017-03-17T06:57:08.719Z,996.85
2017-03-17T06:58:08.759Z,996.87
2017-03-17T06:59:08.799Z,996.84
2017-03-17T07:00:08.846Z,996.96
2017-03-17T07:01:08.879Z,996.94
2017-03-17T07:02:08.927Z,996.93
2017-03-17T07:03:08.973Z,996.85
2017-03-17T07:04:09.008Z,996.94
2017-03-17T07:05:09.048Z,996.85
2017-03-17T07:06:09.081Z,996.84
2017-03-17T07:07:09.129Z,996.81
2017-03-17T07:08:09.162Z,996.91
2017-03-17T07:09:09.202Z,996.88
2017-03-17T07:10:09.244Z,996.85
2017-03-17T07:11:09.284Z,996.85
2017-03-17T07:12:09.331Z,996.83
2017-03-17T07:13:09.364Z,996.83
2017-03-17T07:14:09.406Z,996.79
2017-03-17T07:15:09.465Z,996.79
2017-03-17T07:16:09.494Z,996.81
2017-03-17T07:17:09.631Z,996.8
2017-03-17T07:18:09.566Z,996.79
2017-03-17T07:19:09.609Z,996.81
2017-03-17T07:20:09.657Z,996.84
2017-03-17T07:21:09.697Z,996.85
2017-03-17T07:22:09.754Z,996.84
2017-03-17T07:23:09.808Z,996.89
2017-03-17T07:24:09.811Z,996.86
2017-03-17T07:25:09.873Z,996.85
2017-03-17T07:26:09.908Z,996.87
2017-03-17T07:27:09.942Z,996.91
2017-03-17T07:28:09.984Z,996.84
2017-03-17T07:29:10.025Z,996.82
2017-03-17T07:30:10.067Z,996.82
2017-03-17T07:31:10.315Z,996.9
2017-03-17T07:32:10.143Z,996.89
2017-03-17T07:33:10.198Z,996.82
2017-03-17T07:34:10.234Z,996.82
2017-03-17T07:35:10.277Z,996.86
2017-03-17T07:36:10.308Z,996.82
2017-03-17T07:37:10.366Z,996.82
2017-03-17T07:38:10.391Z,996.89
2017-03-17T07:39:10.436Z,996.82
2017-03-17T07:40:10.484Z,996.83
2017-03-17T07:41:10.536Z,996.85
2017-03-17T07:42:10.559Z,996.89
2017-03-17T07:43:10.602Z,996.79
2017-03-17T07:44:10.652Z,996.8
2017-03-17T07:45:10.685Z,996.84
2017-03-17T07:46:10.753Z,996.89
2017-03-17T07:47:10.768Z,996.75
2017-03-17T07:48:11.032Z,996.86
2017-03-17T07:49:10.859Z,996.77
2017-03-17T07:50:11.158Z,996.81
2017-03-17T07:51:10.936Z,996.84
2017-03-17T07:52:10.981Z,996.78
2017-03-17T07:53:11.018Z,996.89
2017-03-17T07:54:11.060Z,996.88
2017-03-17T07:55:11.101Z,996.81
2017-03-17T07:56:11.143Z,996.78
2017-03-17T07:57:11.184Z,996.83
2017-03-17T07:58:11.234Z,996.82
2017-03-17T07:59:11.275Z,996.8
2017-03-17T08:00:11.314Z,996.71
2017-03-17T08:01:11.356Z,996.76
2017-03-17T08:02:11.389Z,996.8
2017-03-17T08:03:11.431Z,996.81
2017-03-17T08:04:11.478Z,996.86
2017-03-17T08:05:11.509Z,996.82
2017-03-17T08:06:11.572Z,996.84
2017-03-17T08:07:11.598Z,996.82
2017-03-17T08:08:11.631Z,996.85
2017-03-17T08:09:11.674Z,996.81
2017-03-17T08:10:11.719Z,996.84
2017-03-17T08:11:11.776Z,996.84
2017-03-17T08:12:11.801Z,996.79
2017-03-17T08:13:11.842Z,996.83
2017-03-17T08:14:11.874Z,996.8
2017-03-17T08:15:11.921Z,996.83
2017-03-17T08:16:11.963Z,996.82
2017-03-17T08:17:11.996Z,996.88
2017-03-17T08:18:12.129Z,996.84
2017-03-17T08:19:12.106Z,996.85
2017-03-17T08:20:12.117Z,996.88
2017-03-17T08:21:12.169Z,996.9
2017-03-17T08:22:12.200Z,996.87
2017-03-17T08:23:12.241Z,996.79
2017-03-17T08:24:12.293Z,996.74
2017-03-17T08:25:12.323Z,996.94
2017-03-17T08:26:12.366Z,996.85
2017-03-17T08:27:12.415Z,997.02
2017-03-17T08:28:12.457Z,997.01
2017-03-17T08:29:12.490Z,997.07
2017-03-17T08:30:12.537Z,996.93
2017-03-17T08:31:12.575Z,996.94
2017-03-17T08:32:12.628Z,996.95
2017-03-17T08:33:12.659Z,996.96
2017-03-17T08:34:12.703Z,996.94
2017-03-17T08:35:12.754Z,997.03
2017-03-17T08:36:12.786Z,996.96
2017-03-17T08:37:12.837Z,996.97
2017-03-17T08:38:12.871Z,996.98
2017-03-17T08:39:12.923Z,996.91
2017-03-17T08:40:12.967Z,997.02
2017-03-17T08:41:13.007Z,997.07
2017-03-17T08:42:13.042Z,996.96
2017-03-17T08:43:13.093Z,996.98
2017-03-17T08:44:13.126Z,996.98
2017-03-17T08:45:13.170Z,997.02
2017-03-17T08:46:13.224Z,996.95
2017-03-17T08:47:13.252Z,996.93
2017-03-17T08:48:13.305Z,996.92
2017-03-17T08:49:13.339Z,996.95
2017-03-17T08:50:13.390Z,996.89
2017-03-17T08:51:13.422Z,996.91
2017-03-17T08:52:13.473Z,996.94
2017-03-17T08:53:13.507Z,996.88
2017-03-17T08:54:13.549Z,996.89
2017-03-17T08:55:13.602Z,996.86
2017-03-17T08:56:13.640Z,996.94
2017-03-17T08:57:13.675Z,996.96
2017-03-17T08:58:13.723Z,996.86
2017-03-17T08:59:13.756Z,996.89
2017-03-17T09:00:13.806Z,996.92
2017-03-17T09:01:13.839Z,996.92
2017-03-17T09:02:13.952Z,996.87
2017-03-17T09:03:13.929Z,996.83
2017-03-17T09:04:13.970Z,996.82
2017-03-17T09:05:14.019Z,996.91
2017-03-17T09:06:14.043Z,996.85
2017-03-17T09:07:14.571Z,996.86
2017-03-17T09:08:14.134Z,996.9
2017-03-17T09:09:14.173Z,996.84
2017-03-17T09:10:14.204Z,996.83
2017-03-17T09:11:14.273Z,996.79
2017-03-17T09:12:14.329Z,996.83
2017-03-17T09:13:14.331Z,996.9
2017-03-17T09:14:14.366Z,996.86
2017-03-17T09:15:14.439Z,996.78
2017-03-17T09:16:14.460Z,996.89
2017-03-17T09:17:14.514Z,996.89
2017-03-17T09:18:14.527Z,996.86
2017-03-17T09:19:14.577Z,996.9
2017-03-17T09:20:14.605Z,996.91
2017-03-17T09:21:14.659Z,996.88
2017-03-17T09:22:14.684Z,996.84
2017-03-17T09:23:14.727Z,996.84
2017-03-17T09:24:15.971Z,996.74
2017-03-17T09:25:15.337Z,996.7
2017-03-17T09:26:14.844Z,996.78
2017-03-17T09:27:14.885Z,996.69
2017-03-17T09:28:14.923Z,996.68
2017-03-17T09:29:15.911Z,996.73
2017-03-17T09:30:15.000Z,996.73
2017-03-17T09:31:15.039Z,996.81
2017-03-17T09:32:15.078Z,996.74
2017-03-17T09:33:15.118Z,996.79
2017-03-17T09:34:15.180Z,996.77
2017-03-17T09:35:15.337Z,996.79
2017-03-17T09:36:15.285Z,996.8
2017-03-17T09:37:15.274Z,996.82
2017-03-17T09:38:15.369Z,996.84
2017-03-17T09:39:15.351Z,996.8
2017-03-17T09:40:15.391Z,996.8
2017-03-17T09:41:16.344Z,996.78
2017-03-17T09:42:15.467Z,996.86
2017-03-17T09:43:15.509Z,996.89
2017-03-17T09:44:16.131Z,996.89
2017-03-17T09:45:16.335Z,996.86
2017-03-17T09:46:15.623Z,996.82
2017-03-17T09:47:15.772Z,996.86
2017-03-17T09:48:15.820Z,996.85
2017-03-17T09:49:15.740Z,996.85
2017-03-17T09:50:16.223Z,996.8
2017-03-17T09:51:15.998Z,996.81
2017-03-17T09:52:15.857Z,996.78
2017-03-17T09:53:15.893Z,996.86
2017-03-17T09:54:15.939Z,996.85
2017-03-17T09:55:15.986Z,996.89
2017-03-17T09:56:16.017Z,996.92
2017-03-17T09:57:16.047Z,996.91
2017-03-17T09:58:16.086Z,996.95
2017-03-17T09:59:16.135Z,996.98
2017-03-17T10:00:16.177Z,996.94
2017-03-17T10:01:16.210Z,996.94
2017-03-17T10:02:16.249Z,996.94
2017-03-17T10:03:16.287Z,996.95
2017-03-17T10:04:16.326Z,996.99
2017-03-17T10:05:16.564Z,997.01
2017-03-17T10:06:16.394Z,996.97
2017-03-17T10:07:16.442Z,997.03
2017-03-17T10:08:16.479Z,997.01
2017-03-17T10:09:16.517Z,996.98
2017-03-17T10:10:16.557Z,996.98
2017-03-17T10:11:16.594Z,996.95
2017-03-17T10:12:16.633Z,996.9
2017-03-17T10:13:16.674Z,996.96
2017-03-17T10:14:16.710Z,996.96
2017-03-17T10:15:16.747Z,996.96
2017-03-17T10:16:16.785Z,996.9
2017-03-17T10:17:16.825Z,996.88
2017-03-17T10:18:16.864Z,996.9
2017-03-17T10:19:16.896Z,996.92
2017-03-17T10:20:16.939Z,996.91
2017-03-17T10:21:16.970Z,996.89
2017-03-17T10:22:17.007Z,996.92
2017-03-17T10:23:17.054Z,996.89
2017-03-17T10:24:17.092Z,996.93
2017-03-17T10:25:17.123Z,996.92
2017-03-17T10:26:17.169Z,996.92
2017-03-17T10:27:17.212Z,996.9
2017-03-17T10:28:17.246Z,996.9
2017-03-17T10:29:17.278Z,996.88
2017-03-17T10:30:17.314Z,996.88
2017-03-17T10:31:17.352Z,996.88
2017-03-17T10:32:17.397Z,996.87
2017-03-17T10:33:17.428Z,996.88
2017-03-17T10:34:17.473Z,996.89
2017-03-17T10:35:17.514Z,996.89
2017-03-17T10:36:17.550Z,996.88
2017-03-17T10:37:17.653Z,996.87
2017-03-17T10:38:17.618Z,996.9
2017-03-17T10:39:17.657Z,996.88
2017-03-17T10:40:17.696Z,996.94
2017-03-17T10:41:17.742Z,996.92
2017-03-17T10:42:17.779Z,996.9
2017-03-17T10:43:17.817Z,996.91
2017-03-17T10:44:17.857Z,996.91
2017-03-17T10:45:17.886Z,996.86
2017-03-17T10:46:17.924Z,996.92
2017-03-17T10:47:17.963Z,996.93
2017-03-17T10:48:18.014Z,996.87
2017-03-17T10:49:18.040Z,996.88
2017-03-17T10:50:18.078Z,996.8
2017-03-17T10:51:18.123Z,996.85
2017-03-17T10:52:18.153Z,996.76
2017-03-17T10:53:18.689Z,996.79
2017-03-17T10:54:18.238Z,996.72
2017-03-17T10:55:18.275Z,996.71
2017-03-17T10:56:18.344Z,996.66
2017-03-17T10:57:18.346Z,996.66
2017-03-17T10:58:18.383Z,996.62
2017-03-17T10:59:18.431Z,996.61
2017-03-17T11:00:18.458Z,996.61
2017-03-17T11:01:18.506Z,996.55
2017-03-17T11:02:18.545Z,996.5
2017-03-17T11:03:18.576Z,996.45
2017-03-17T11:04:18.613Z,996.49
2017-03-17T11:05:18.660Z,996.41
2017-03-17T11:06:18.738Z,996.41
2017-03-17T11:07:18.736Z,996.43
2017-03-17T11:08:18.775Z,996.35
2017-03-17T11:09:18.806Z,996.32
2017-03-17T11:10:18.847Z,996.4
2017-03-17T11:11:18.893Z,996.35
2017-03-17T11:12:18.924Z,996.34
2017-03-17T11:13:19.049Z,996.36
2017-03-17T11:14:19.007Z,996.33
2017-03-17T11:15:19.051Z,996.26
2017-03-17T11:16:19.080Z,996.27
2017-03-17T11:17:19.123Z,996.25
2017-03-17T11:18:19.165Z,996.17
2017-03-17T11:19:19.196Z,996.22
2017-03-17T11:20:19.242Z,996.2
2017-03-17T11:21:19.298Z,996.18
2017-03-17T11:22:19.330Z,996.16
2017-03-17T11:23:19.355Z,996.14
2017-03-17T11:24:19.478Z,996.13
2017-03-17T11:25:19.449Z,996.13
2017-03-17T11:26:19.504Z,996.13
2017-03-17T11:27:19.521Z,996.19
2017-03-17T11:28:19.560Z,996.16
2017-03-17T11:29:19.598Z,996.18
2017-03-17T11:30:19.870Z,996.22
2017-03-17T11:31:19.682Z,996.15
2017-03-17T11:32:19.716Z,996.16
2017-03-17T11:33:19.807Z,996.14
2017-03-17T11:34:19.797Z,996.2
2017-03-17T11:35:19.836Z,996.1
2017-03-17T11:36:19.869Z,996.13
2017-03-17T11:37:19.909Z,996.08
2017-03-17T11:38:19.957Z,996.11
2017-03-17T11:39:19.988Z,996.09
2017-03-17T11:40:20.039Z,995.96
2017-03-17T11:41:20.078Z,996.15
2017-03-17T11:42:20.112Z,996.05
2017-03-17T11:43:20.170Z,996.13
2017-03-17T11:44:20.201Z,996.17
2017-03-17T11:45:20.243Z,996.13
2017-03-17T11:46:20.275Z,996.16
2017-03-17T11:47:20.324Z,996.09
2017-03-17T11:48:20.367Z,996.11
2017-03-17T11:49:20.421Z,996.1
2017-03-17T11:50:20.440Z,996.1
2017-03-17T11:51:20.489Z,996.18
2017-03-17T11:52:20.524Z,996.09
2017-03-17T11:53:20.575Z,996
2017-03-17T11:54:20.605Z,996
2017-03-17T11:55:20.659Z,996.06
2017-03-17T11:56:20.689Z,995.91
2017-03-17T11:57:20.730Z,996
2017-03-17T11:58:20.771Z,996.06
2017-03-17T11:59:20.819Z,996.06
2017-03-17T12:00:20.860Z,996.11
2017-03-17T12:01:20.900Z,996.11
2017-03-17T12:02:20.941Z,996.1
2017-03-17T12:03:20.975Z,996.14
2017-03-17T12:04:21.024Z,996.08
2017-03-17T12:05:21.062Z,996.15
2017-03-17T12:06:21.096Z,996.09
2017-03-17T12:07:21.137Z,996.15
2017-03-17T12:08:21.177Z,996.07
2017-03-17T12:09:21.215Z,996.08
2017-03-17T12:10:21.264Z,996.07
2017-03-17T12:11:21.303Z,996.02
2017-03-17T12:12:21.336Z,996.09
2017-03-17T12:13:21.382Z,996.07
2017-03-17T12:14:21.419Z,996.09
2017-03-17T12:15:21.465Z,996.04
2017-03-17T12:16:21.502Z,996.02
2017-03-17T12:17:21.542Z,995.95
2017-03-17T12:18:21.576Z,995.83
2017-03-17T12:19:21.615Z,995.8
2017-03-17T12:20:21.661Z,995.95
2017-03-17T12:21:21.694Z,995.88
2017-03-17T12:22:21.743Z,995.85
2017-03-17T12:23:21.782Z,995.8
2017-03-17T12:24:21.813Z,995.84
2017-03-17T12:25:21.860Z,995.76
2017-03-17T12:26:21.894Z,995.83
2017-03-17T12:27:21.930Z,995.8
2017-03-17T12:28:21.972Z,995.79